sensor_id;sensor_type;location;lat;lon;timestamp;pressure;altitude;pressure_sealevel;temperature;humidity
59545;BME280;45368;55.002;-1.592;2022-09-12T00:01:29;100140.72;;;14.89;78.95
59545;BME280;45368;55.002;-1.592;2022-09-12T00:03:58;100135.96;;;14.14;79.68
59545;BME280;45368;55.002;-1.592;2022-09-12T00:06:28;100129.37;;;14.83;77.02
59545;BME280;45368;55.002;-1.592;2022-09-12T00:08:58;100130.23;;;14.60;78.59
59545;BME280;45368;55.002;-1.592;2022-09-12T00:11:26;100127.55;;;14.95;77.87
59545;BME280;45368;55.002;-1.592;2022-09-12T00:13:56;100129.18;;;14.54;77.74
59545;BME280;45368;55.002;-1.592;2022-09-12T00:16:26;100128.77;;;14.86;76.95
59545;BME280;45368;55.002;-1.592;2022-09-12T00:18:53;100135.15;;;14.72;77.44
59545;BME280;45368;55.002;-1.592;2022-09-12T00:21:22;100137.49;;;14.73;77.94
59545;BME280;45368;55.002;-1.592;2022-09-12T00:23:49;100139.52;;;15.02;77.20
59545;BME280;45368;55.002;-1.592;2022-09-12T00:26:19;100127.28;;;15.38;74.73
59545;BME280;45368;55.002;-1.592;2022-09-12T00:28:47;100121.85;;;15.32;74.99
59545;BME280;45368;55.002;-1.592;2022-09-12T00:31:16;100120.42;;;15.52;73.17
59545;BME280;45368;55.002;-1.592;2022-09-12T00:33:45;100114.03;;;15.51;73.70
59545;BME280;45368;55.002;-1.592;2022-09-12T00:36:15;100113.46;;;15.25;74.77
59545;BME280;45368;55.002;-1.592;2022-09-12T00:38:43;100114.66;;;15.23;74.63
59545;BME280;45368;55.002;-1.592;2022-09-12T00:41:15;100109.94;;;14.61;76.02
59545;BME280;45368;55.002;-1.592;2022-09-12T00:43:45;100099.83;;;14.93;75.26
59545;BME280;45368;55.002;-1.592;2022-09-12T00:46:19;100096.48;;;14.75;76.69
59545;BME280;45368;55.002;-1.592;2022-09-12T00:48:57;100089.61;;;15.49;74.22
59545;BME280;45368;55.002;-1.592;2022-09-12T00:51:26;100089.51;;;15.34;74.13
59545;BME280;45368;55.002;-1.592;2022-09-12T00:53:55;100089.86;;;15.68;73.69
59545;BME280;45368;55.002;-1.592;2022-09-12T00:56:23;100083.95;;;15.62;73.40
59545;BME280;45368;55.002;-1.592;2022-09-12T00:58:56;100083.46;;;15.58;74.14
59545;BME280;45368;55.002;-1.592;2022-09-12T01:01:26;100080.68;;;15.45;73.32
59545;BME280;45368;55.002;-1.592;2022-09-12T01:03:53;100077.17;;;15.64;73.31
59545;BME280;45368;55.002;-1.592;2022-09-12T01:06:26;100074.87;;;15.41;73.73
59545;BME280;45368;55.002;-1.592;2022-09-12T01:08:54;100072.66;;;15.60;72.98
59545;BME280;45368;55.002;-1.592;2022-09-12T01:11:22;100073.34;;;15.17;74.20
59545;BME280;45368;55.002;-1.592;2022-09-12T01:13:50;100064.53;;;15.61;73.13
59545;BME280;45368;55.002;-1.592;2022-09-12T01:16:17;100061.76;;;15.20;74.08
59545;BME280;45368;55.002;-1.592;2022-09-12T01:18:56;100058.80;;;15.08;74.33
59545;BME280;45368;55.002;-1.592;2022-09-12T01:21:35;100051.72;;;15.39;73.87
59545;BME280;45368;55.002;-1.592;2022-09-12T01:25:22;100046.87;;;15.00;74.36
59545;BME280;45368;55.002;-1.592;2022-09-12T01:28:08;100037.18;;;15.67;71.78
59545;BME280;45368;55.002;-1.592;2022-09-12T01:30:43;100033.76;;;15.59;71.89
59545;BME280;45368;55.002;-1.592;2022-09-12T01:33:24;100031.81;;;16.39;69.66
59545;BME280;45368;55.002;-1.592;2022-09-12T01:36:03;100026.82;;;16.43;69.99
59545;BME280;45368;55.002;-1.592;2022-09-12T01:38:38;100022.22;;;16.04;70.76
59545;BME280;45368;55.002;-1.592;2022-09-12T01:41:15;100016.86;;;15.56;71.81
59545;BME280;45368;55.002;-1.592;2022-09-12T01:43:51;100019.33;;;15.71;72.53
59545;BME280;45368;55.002;-1.592;2022-09-12T01:46:28;100015.35;;;15.63;72.70
59545;BME280;45368;55.002;-1.592;2022-09-12T01:48:59;100015.31;;;15.56;72.24
59545;BME280;45368;55.002;-1.592;2022-09-12T01:51:32;100011.67;;;15.48;73.16
59545;BME280;45368;55.002;-1.592;2022-09-12T01:54:07;100011.25;;;15.65;72.57
59545;BME280;45368;55.002;-1.592;2022-09-12T01:56:38;100008.71;;;15.82;70.66
59545;BME280;45368;55.002;-1.592;2022-09-12T01:59:11;100007.08;;;15.60;71.12
59545;BME280;45368;55.002;-1.592;2022-09-12T02:01:46;100003.17;;;16.25;69.72
59545;BME280;45368;55.002;-1.592;2022-09-12T02:04:18;100004.75;;;16.22;69.20
59545;BME280;45368;55.002;-1.592;2022-09-12T02:06:51;100000.46;;;16.56;68.84
59545;BME280;45368;55.002;-1.592;2022-09-12T02:09:22;99999.53;;;16.40;68.13
59545;BME280;45368;55.002;-1.592;2022-09-12T02:11:57;99998.95;;;16.35;68.88
59545;BME280;45368;55.002;-1.592;2022-09-12T02:14:28;99996.71;;;16.36;69.56
59545;BME280;45368;55.002;-1.592;2022-09-12T02:16:59;99994.83;;;16.51;68.26
59545;BME280;45368;55.002;-1.592;2022-09-12T02:19:31;99993.47;;;16.04;69.93
59545;BME280;45368;55.002;-1.592;2022-09-12T02:22:02;99982.99;;;15.89;69.22
59545;BME280;45368;55.002;-1.592;2022-09-12T02:24:32;99977.63;;;16.61;67.52
59545;BME280;45368;55.002;-1.592;2022-09-12T02:27:05;99972.38;;;16.76;68.30
59545;BME280;45368;55.002;-1.592;2022-09-12T02:29:35;99971.64;;;16.61;68.59
59545;BME280;45368;55.002;-1.592;2022-09-12T02:32:06;99969.02;;;16.47;69.66
59545;BME280;45368;55.002;-1.592;2022-09-12T02:34:43;99971.09;;;16.11;70.45
59545;BME280;45368;55.002;-1.592;2022-09-12T02:37:18;99967.64;;;16.50;68.48
59545;BME280;45368;55.002;-1.592;2022-09-12T02:39:48;99969.22;;;16.56;67.85
59545;BME280;45368;55.002;-1.592;2022-09-12T02:42:15;99969.75;;;16.94;66.67
59545;BME280;45368;55.002;-1.592;2022-09-12T02:44:42;99967.45;;;16.93;66.68
59545;BME280;45368;55.002;-1.592;2022-09-12T02:47:14;99966.90;;;17.20;66.72
59545;BME280;45368;55.002;-1.592;2022-09-12T02:49:44;99961.87;;;16.75;68.02
59545;BME280;45368;55.002;-1.592;2022-09-12T02:52:11;99955.87;;;16.11;68.95
59545;BME280;45368;55.002;-1.592;2022-09-12T02:54:39;99954.27;;;17.59;65.61
59545;BME280;45368;55.002;-1.592;2022-09-12T02:57:15;99953.41;;;16.65;68.09
59545;BME280;45368;55.002;-1.592;2022-09-12T02:59:43;99952.12;;;17.28;66.41
59545;BME280;45368;55.002;-1.592;2022-09-12T03:02:21;99951.25;;;17.24;66.08
59545;BME280;45368;55.002;-1.592;2022-09-12T03:05:09;99950.87;;;17.76;64.95
59545;BME280;45368;55.002;-1.592;2022-09-12T03:07:55;99949.74;;;18.27;63.64
59545;BME280;45368;55.002;-1.592;2022-09-12T03:10:31;99947.02;;;17.53;65.31
59545;BME280;45368;55.002;-1.592;2022-09-12T03:13:07;99948.81;;;17.65;63.93
59545;BME280;45368;55.002;-1.592;2022-09-12T03:15:48;99952.06;;;17.72;64.71
59545;BME280;45368;55.002;-1.592;2022-09-12T03:18:25;99949.03;;;16.87;67.10
59545;BME280;45368;55.002;-1.592;2022-09-12T03:21:01;99954.06;;;16.61;68.04
59545;BME280;45368;55.002;-1.592;2022-09-12T03:23:32;99954.39;;;17.74;65.69
59545;BME280;45368;55.002;-1.592;2022-09-12T03:26:05;99953.14;;;18.07;64.30
59545;BME280;45368;55.002;-1.592;2022-09-12T03:28:33;99948.43;;;18.13;63.40
59545;BME280;45368;55.002;-1.592;2022-09-12T03:31:11;99949.33;;;17.96;63.82
59545;BME280;45368;55.002;-1.592;2022-09-12T03:33:38;99947.26;;;18.49;62.51
59545;BME280;45368;55.002;-1.592;2022-09-12T03:36:12;99949.20;;;18.38;62.13
59545;BME280;45368;55.002;-1.592;2022-09-12T03:38:40;99948.66;;;18.52;61.66
59545;BME280;45368;55.002;-1.592;2022-09-12T03:41:08;99948.54;;;18.27;62.20
59545;BME280;45368;55.002;-1.592;2022-09-12T03:43:36;99943.92;;;18.04;63.17
59545;BME280;45368;55.002;-1.592;2022-09-12T03:46:04;99951.58;;;17.50;64.73
59545;BME280;45368;55.002;-1.592;2022-09-12T03:48:36;99945.12;;;18.37;62.82
59545;BME280;45368;55.002;-1.592;2022-09-12T03:51:06;99941.09;;;18.39;61.71
59545;BME280;45368;55.002;-1.592;2022-09-12T03:53:34;99941.65;;;17.44;65.17
59545;BME280;45368;55.002;-1.592;2022-09-12T03:56:06;99935.50;;;18.55;62.22
59545;BME280;45368;55.002;-1.592;2022-09-12T03:58:34;99927.65;;;18.92;61.47
59545;BME280;45368;55.002;-1.592;2022-09-12T04:01:06;99925.21;;;18.72;61.29
59545;BME280;45368;55.002;-1.592;2022-09-12T04:03:33;99932.42;;;17.91;63.97
59545;BME280;45368;55.002;-1.592;2022-09-12T04:06:01;99933.08;;;18.17;62.90
59545;BME280;45368;55.002;-1.592;2022-09-12T04:08:28;99934.21;;;18.00;62.96
59545;BME280;45368;55.002;-1.592;2022-09-12T04:11:01;99930.17;;;18.48;61.47
59545;BME280;45368;55.002;-1.592;2022-09-12T04:13:29;99937.36;;;18.25;61.96
59545;BME280;45368;55.002;-1.592;2022-09-12T04:15:56;99934.86;;;18.43;61.65
59545;BME280;45368;55.002;-1.592;2022-09-12T04:18:24;99935.71;;;17.96;62.10
59545;BME280;45368;55.002;-1.592;2022-09-12T04:20:52;99932.97;;;18.35;62.98
59545;BME280;45368;55.002;-1.592;2022-09-12T04:23:19;99927.11;;;18.05;63.28
59545;BME280;45368;55.002;-1.592;2022-09-12T04:25:52;99924.90;;;18.07;63.00
59545;BME280;45368;55.002;-1.592;2022-09-12T04:28:20;99919.42;;;18.63;61.89
59545;BME280;45368;55.002;-1.592;2022-09-12T04:30:48;99917.22;;;18.91;60.50
59545;BME280;45368;55.002;-1.592;2022-09-12T04:33:15;99920.03;;;18.28;62.51
59545;BME280;45368;55.002;-1.592;2022-09-12T04:35:43;99922.92;;;17.82;63.38
59545;BME280;45368;55.002;-1.592;2022-09-12T04:38:10;99927.31;;;17.30;64.69
59545;BME280;45368;55.002;-1.592;2022-09-12T04:40:38;99926.03;;;18.15;62.82
59545;BME280;45368;55.002;-1.592;2022-09-12T04:43:04;99921.40;;;18.55;61.64
59545;BME280;45368;55.002;-1.592;2022-09-12T04:45:32;99927.18;;;18.25;62.39
59545;BME280;45368;55.002;-1.592;2022-09-12T04:48:00;99920.10;;;18.65;61.88
59545;BME280;45368;55.002;-1.592;2022-09-12T04:50:27;99926.87;;;19.02;59.99
59545;BME280;45368;55.002;-1.592;2022-09-12T04:52:55;99924.23;;;19.64;58.86
59545;BME280;45368;55.002;-1.592;2022-09-12T04:55:22;99930.26;;;18.89;59.42
59545;BME280;45368;55.002;-1.592;2022-09-12T04:57:57;99927.23;;;19.91;57.13
59545;BME280;45368;55.002;-1.592;2022-09-12T05:00:25;99928.90;;;19.70;57.95
59545;BME280;45368;55.002;-1.592;2022-09-12T05:02:52;99929.36;;;19.34;57.18
59545;BME280;45368;55.002;-1.592;2022-09-12T05:05:20;99925.65;;;20.11;56.37
59545;BME280;45368;55.002;-1.592;2022-09-12T05:07:46;99926.07;;;21.04;54.79
59545;BME280;45368;55.002;-1.592;2022-09-12T05:10:13;99925.13;;;21.02;53.92
59545;BME280;45368;55.002;-1.592;2022-09-12T05:12:41;99931.48;;;20.94;54.09
59545;BME280;45368;55.002;-1.592;2022-09-12T05:15:09;99938.99;;;20.64;54.23
59545;BME280;45368;55.002;-1.592;2022-09-12T05:17:36;99945.82;;;20.63;53.89
59545;BME280;45368;55.002;-1.592;2022-09-12T05:20:04;99948.38;;;20.91;53.65
59545;BME280;45368;55.002;-1.592;2022-09-12T05:22:31;99951.24;;;20.62;54.14
59545;BME280;45368;55.002;-1.592;2022-09-12T05:24:59;99956.20;;;19.66;56.38
59545;BME280;45368;55.002;-1.592;2022-09-12T05:27:26;99961.04;;;18.50;59.55
59545;BME280;45368;55.002;-1.592;2022-09-12T05:29:54;99963.56;;;19.55;59.08
59545;BME280;45368;55.002;-1.592;2022-09-12T05:32:22;99965.83;;;19.28;60.20
59545;BME280;45368;55.002;-1.592;2022-09-12T05:34:48;99972.67;;;18.23;63.15
59545;BME280;45368;55.002;-1.592;2022-09-12T05:37:16;99972.16;;;17.86;64.31
59545;BME280;45368;55.002;-1.592;2022-09-12T05:39:44;99971.19;;;18.72;63.01
59545;BME280;45368;55.002;-1.592;2022-09-12T05:42:10;99974.56;;;17.72;65.25
59545;BME280;45368;55.002;-1.592;2022-09-12T05:44:37;99971.79;;;18.47;64.26
59545;BME280;45368;55.002;-1.592;2022-09-12T05:47:05;99972.27;;;17.55;65.16
59545;BME280;45368;55.002;-1.592;2022-09-12T05:49:34;99968.15;;;18.54;62.39
59545;BME280;45368;55.002;-1.592;2022-09-12T05:52:01;99972.15;;;18.14;63.53
59545;BME280;45368;55.002;-1.592;2022-09-12T05:54:29;99976.19;;;17.68;63.52
59545;BME280;45368;55.002;-1.592;2022-09-12T05:56:56;99979.20;;;17.27;66.07
59545;BME280;45368;55.002;-1.592;2022-09-12T05:59:23;99977.90;;;17.40;65.71
59545;BME280;45368;55.002;-1.592;2022-09-12T06:01:50;99974.15;;;17.54;65.50
59545;BME280;45368;55.002;-1.592;2022-09-12T06:04:18;99968.90;;;17.46;65.54
59545;BME280;45368;55.002;-1.592;2022-09-12T06:06:46;99967.42;;;18.17;63.23
59545;BME280;45368;55.002;-1.592;2022-09-12T06:09:15;99971.61;;;17.56;64.38
59545;BME280;45368;55.002;-1.592;2022-09-12T06:11:44;99971.43;;;17.61;63.82
59545;BME280;45368;55.002;-1.592;2022-09-12T06:14:14;99973.45;;;17.64;63.88
59545;BME280;45368;55.002;-1.592;2022-09-12T06:16:42;99980.92;;;17.69;64.40
59545;BME280;45368;55.002;-1.592;2022-09-12T06:19:16;99983.77;;;17.11;65.34
59545;BME280;45368;55.002;-1.592;2022-09-12T06:21:44;99982.84;;;17.42;64.01
59545;BME280;45368;55.002;-1.592;2022-09-12T06:24:11;99984.64;;;17.64;63.73
59545;BME280;45368;55.002;-1.592;2022-09-12T06:26:39;99981.63;;;18.32;62.17
59545;BME280;45368;55.002;-1.592;2022-09-12T06:29:06;99980.63;;;18.22;61.70
59545;BME280;45368;55.002;-1.592;2022-09-12T06:31:35;99983.28;;;17.73;63.08
59545;BME280;45368;55.002;-1.592;2022-09-12T06:34:05;99984.56;;;18.61;61.08
59545;BME280;45368;55.002;-1.592;2022-09-12T06:36:35;99994.55;;;18.22;61.47
59545;BME280;45368;55.002;-1.592;2022-09-12T06:39:05;99998.84;;;17.78;62.54
59545;BME280;45368;55.002;-1.592;2022-09-12T06:41:32;100005.67;;;17.81;62.49
59545;BME280;45368;55.002;-1.592;2022-09-12T06:44:01;100003.11;;;17.94;61.25
59545;BME280;45368;55.002;-1.592;2022-09-12T06:46:29;100007.72;;;18.58;60.50
59545;BME280;45368;55.002;-1.592;2022-09-12T06:48:56;100006.76;;;18.64;59.64
59545;BME280;45368;55.002;-1.592;2022-09-12T06:51:24;100011.25;;;18.40;59.77
59545;BME280;45368;55.002;-1.592;2022-09-12T06:53:54;100016.39;;;18.34;58.92
59545;BME280;45368;55.002;-1.592;2022-09-12T06:56:23;100019.44;;;17.53;60.45
59545;BME280;45368;55.002;-1.592;2022-09-12T06:58:51;100024.00;;;17.02;61.61
59545;BME280;45368;55.002;-1.592;2022-09-12T07:01:20;100021.43;;;16.82;61.32
59545;BME280;45368;55.002;-1.592;2022-09-12T07:03:49;100022.76;;;17.06;62.26
59545;BME280;45368;55.002;-1.592;2022-09-12T07:06:18;100024.90;;;16.91;61.32
59545;BME280;45368;55.002;-1.592;2022-09-12T07:08:46;100030.09;;;17.67;59.68
59545;BME280;45368;55.002;-1.592;2022-09-12T07:11:15;100027.63;;;17.02;61.02
59545;BME280;45368;55.002;-1.592;2022-09-12T07:13:45;100026.47;;;17.36;60.86
59545;BME280;45368;55.002;-1.592;2022-09-12T07:16:13;100032.09;;;16.89;61.07
59545;BME280;45368;55.002;-1.592;2022-09-12T07:18:41;100035.55;;;16.89;62.72
59545;BME280;45368;55.002;-1.592;2022-09-12T07:21:10;100040.45;;;17.13;61.31
59545;BME280;45368;55.002;-1.592;2022-09-12T07:23:38;100044.72;;;16.60;62.39
59545;BME280;45368;55.002;-1.592;2022-09-12T07:26:06;100048.08;;;16.93;62.55
59545;BME280;45368;55.002;-1.592;2022-09-12T07:28:34;100053.67;;;16.89;61.92
59545;BME280;45368;55.002;-1.592;2022-09-12T07:31:05;100059.03;;;16.80;62.62
59545;BME280;45368;55.002;-1.592;2022-09-12T07:33:33;100064.09;;;17.11;62.01
59545;BME280;45368;55.002;-1.592;2022-09-12T07:36:02;100060.54;;;17.20;61.77
59545;BME280;45368;55.002;-1.592;2022-09-12T07:38:29;100059.83;;;17.37;61.45
59545;BME280;45368;55.002;-1.592;2022-09-12T07:40:57;100058.50;;;17.58;60.10
59545;BME280;45368;55.002;-1.592;2022-09-12T07:43:24;100066.44;;;18.02;59.56
59545;BME280;45368;55.002;-1.592;2022-09-12T07:45:54;100066.81;;;18.35;58.37
59545;BME280;45368;55.002;-1.592;2022-09-12T07:48:21;100071.55;;;17.52;60.20
59545;BME280;45368;55.002;-1.592;2022-09-12T07:50:57;100070.17;;;17.65;59.77
59545;BME280;45368;55.002;-1.592;2022-09-12T07:53:24;100065.63;;;18.13;58.78
59545;BME280;45368;55.002;-1.592;2022-09-12T07:55:53;100065.90;;;18.66;57.49
59545;BME280;45368;55.002;-1.592;2022-09-12T07:58:20;100059.26;;;18.01;59.46
59545;BME280;45368;55.002;-1.592;2022-09-12T08:00:48;100055.07;;;17.58;59.68
59545;BME280;45368;55.002;-1.592;2022-09-12T08:03:16;100054.67;;;17.77;59.71
59545;BME280;45368;55.002;-1.592;2022-09-12T08:05:44;100057.07;;;17.65;59.44
59545;BME280;45368;55.002;-1.592;2022-09-12T08:08:12;100058.02;;;17.81;59.28
59545;BME280;45368;55.002;-1.592;2022-09-12T08:10:39;100059.73;;;17.29;60.14
59545;BME280;45368;55.002;-1.592;2022-09-12T08:13:07;100069.17;;;16.75;61.36
59545;BME280;45368;55.002;-1.592;2022-09-12T08:15:34;100066.28;;;16.69;61.13
59545;BME280;45368;55.002;-1.592;2022-09-12T08:18:01;100063.45;;;16.75;61.14
59545;BME280;45368;55.002;-1.592;2022-09-12T08:20:29;100063.21;;;17.53;59.68
59545;BME280;45368;55.002;-1.592;2022-09-12T08:22:56;100066.50;;;17.62;59.28
59545;BME280;45368;55.002;-1.592;2022-09-12T08:25:24;100071.04;;;16.93;61.65
59545;BME280;45368;55.002;-1.592;2022-09-12T08:27:52;100065.01;;;17.20;60.56
59545;BME280;45368;55.002;-1.592;2022-09-12T08:30:19;100067.49;;;17.78;59.44
59545;BME280;45368;55.002;-1.592;2022-09-12T08:32:47;100068.71;;;17.90;59.58
59545;BME280;45368;55.002;-1.592;2022-09-12T08:35:15;100072.11;;;17.98;59.40
59545;BME280;45368;55.002;-1.592;2022-09-12T08:37:42;100068.82;;;17.65;60.06
59545;BME280;45368;55.002;-1.592;2022-09-12T08:40:14;100070.82;;;17.68;59.24
59545;BME280;45368;55.002;-1.592;2022-09-12T08:42:51;100071.00;;;17.66;59.63
59545;BME280;45368;55.002;-1.592;2022-09-12T08:45:25;100067.79;;;18.11;59.07
59545;BME280;45368;55.002;-1.592;2022-09-12T08:47:55;100063.97;;;18.81;57.26
59545;BME280;45368;55.002;-1.592;2022-09-12T08:50:23;100067.97;;;18.39;57.67
59545;BME280;45368;55.002;-1.592;2022-09-12T08:52:54;100065.93;;;18.47;57.07
59545;BME280;45368;55.002;-1.592;2022-09-12T08:55:29;100071.50;;;18.42;57.42
59545;BME280;45368;55.002;-1.592;2022-09-12T08:57:57;100071.01;;;18.69;58.01
59545;BME280;45368;55.002;-1.592;2022-09-12T09:00:29;100069.01;;;17.42;60.54
59545;BME280;45368;55.002;-1.592;2022-09-12T09:03:11;100076.11;;;17.56;60.71
59545;BME280;45368;55.002;-1.592;2022-09-12T09:05:50;100081.19;;;18.09;59.33
59545;BME280;45368;55.002;-1.592;2022-09-12T09:08:30;100084.58;;;17.93;60.19
59545;BME280;45368;55.002;-1.592;2022-09-12T09:11:14;100086.52;;;18.39;58.85
59545;BME280;45368;55.002;-1.592;2022-09-12T09:13:53;100092.68;;;17.78;59.34
59545;BME280;45368;55.002;-1.592;2022-09-12T09:16:29;100088.38;;;18.30;59.11
59545;BME280;45368;55.002;-1.592;2022-09-12T09:18:59;100087.70;;;18.28;59.48
59545;BME280;45368;55.002;-1.592;2022-09-12T09:21:30;100086.84;;;18.02;60.24
59545;BME280;45368;55.002;-1.592;2022-09-12T09:24:03;100086.31;;;18.25;59.28
59545;BME280;45368;55.002;-1.592;2022-09-12T09:26:40;100086.43;;;18.49;58.68
59545;BME280;45368;55.002;-1.592;2022-09-12T09:29:14;100089.06;;;18.34;58.81
59545;BME280;45368;55.002;-1.592;2022-09-12T09:31:47;100090.34;;;17.60;60.98
59545;BME280;45368;55.002;-1.592;2022-09-12T09:34:19;100087.91;;;18.43;60.00
59545;BME280;45368;55.002;-1.592;2022-09-12T09:36:50;100086.49;;;18.40;58.18
59545;BME280;45368;55.002;-1.592;2022-09-12T09:39:28;100081.93;;;19.21;57.63
59545;BME280;45368;55.002;-1.592;2022-09-12T09:42:11;100093.13;;;18.87;57.04
59545;BME280;45368;55.002;-1.592;2022-09-12T09:44:42;100091.89;;;19.12;57.24
59545;BME280;45368;55.002;-1.592;2022-09-12T09:47:11;100094.29;;;19.00;56.76
59545;BME280;45368;55.002;-1.592;2022-09-12T09:49:39;100090.88;;;18.74;58.77
59545;BME280;45368;55.002;-1.592;2022-09-12T09:52:07;100082.78;;;19.50;57.72
59545;BME280;45368;55.002;-1.592;2022-09-12T09:54:38;100083.43;;;19.34;56.45
59545;BME280;45368;55.002;-1.592;2022-09-12T09:57:38;100081.69;;;18.93;56.75
59545;BME280;45368;55.002;-1.592;2022-09-12T10:00:27;100084.16;;;19.44;56.67
59545;BME280;45368;55.002;-1.592;2022-09-12T10:03:06;100075.83;;;19.82;55.23
59545;BME280;45368;55.002;-1.592;2022-09-12T10:05:45;100071.80;;;20.00;54.31
59545;BME280;45368;55.002;-1.592;2022-09-12T10:08:20;100079.29;;;19.23;56.50
59545;BME280;45368;55.002;-1.592;2022-09-12T10:10:59;100066.12;;;20.39;55.34
59545;BME280;45368;55.002;-1.592;2022-09-12T10:13:32;100074.88;;;19.68;55.85
59545;BME280;45368;55.002;-1.592;2022-09-12T10:16:03;100074.08;;;19.47;55.57
59545;BME280;45368;55.002;-1.592;2022-09-12T10:18:35;100073.99;;;19.35;56.63
59545;BME280;45368;55.002;-1.592;2022-09-12T10:21:13;100081.45;;;19.03;56.49
59545;BME280;45368;55.002;-1.592;2022-09-12T10:23:41;100076.96;;;19.05;56.13
59545;BME280;45368;55.002;-1.592;2022-09-12T10:26:11;100080.36;;;18.73;56.43
59545;BME280;45368;55.002;-1.592;2022-09-12T10:28:41;100077.61;;;19.32;55.42
59545;BME280;45368;55.002;-1.592;2022-09-12T10:31:13;100072.28;;;18.76;56.03
59545;BME280;45368;55.002;-1.592;2022-09-12T10:34:38;100081.24;;;19.79;55.47
59545;BME280;45368;55.002;-1.592;2022-09-12T10:37:21;100083.36;;;18.27;58.26
59545;BME280;45368;55.002;-1.592;2022-09-12T10:40:01;100083.80;;;19.81;55.00
59545;BME280;45368;55.002;-1.592;2022-09-12T10:42:48;100075.74;;;19.67;54.17
59545;BME280;45368;55.002;-1.592;2022-09-12T10:45:20;100074.37;;;18.55;56.75
59545;BME280;45368;55.002;-1.592;2022-09-12T10:47:49;100071.65;;;19.48;54.47
59545;BME280;45368;55.002;-1.592;2022-09-12T10:50:20;100063.39;;;19.67;54.01
59545;BME280;45368;55.002;-1.592;2022-09-12T10:52:48;100068.57;;;19.00;56.06
59545;BME280;45368;55.002;-1.592;2022-09-12T10:55:15;100081.59;;;18.72;57.07
59545;BME280;45368;55.002;-1.592;2022-09-12T10:57:54;100080.87;;;18.43;57.51
59545;BME280;45368;55.002;-1.592;2022-09-12T11:00:28;100081.29;;;18.21;58.23
59545;BME280;45368;55.002;-1.592;2022-09-12T11:03:01;100079.14;;;19.08;56.05
59545;BME280;45368;55.002;-1.592;2022-09-12T11:05:40;100080.21;;;19.24;55.22
59545;BME280;45368;55.002;-1.592;2022-09-12T11:08:27;100080.17;;;18.71;56.63
59545;BME280;45368;55.002;-1.592;2022-09-12T11:11:01;100076.77;;;18.77;56.24
59545;BME280;45368;55.002;-1.592;2022-09-12T11:13:48;100072.65;;;18.54;56.94
59545;BME280;45368;55.002;-1.592;2022-09-12T11:16:26;100068.41;;;19.18;56.59
59545;BME280;45368;55.002;-1.592;2022-09-12T11:19:11;100058.75;;;19.62;54.67
59545;BME280;45368;55.002;-1.592;2022-09-12T11:21:53;100065.41;;;19.07;55.74
59545;BME280;45368;55.002;-1.592;2022-09-12T11:24:39;100064.55;;;18.92;55.46
59545;BME280;45368;55.002;-1.592;2022-09-12T11:27:26;100069.96;;;18.48;56.67
59545;BME280;45368;55.002;-1.592;2022-09-12T11:30:03;100063.53;;;19.25;54.91
59545;BME280;45368;55.002;-1.592;2022-09-12T11:32:48;100063.01;;;19.09;54.45
59545;BME280;45368;55.002;-1.592;2022-09-12T11:35:24;100067.75;;;19.33;55.67
59545;BME280;45368;55.002;-1.592;2022-09-12T11:38:03;100066.32;;;19.01;54.15
59545;BME280;45368;55.002;-1.592;2022-09-12T11:40:39;100070.23;;;18.94;54.80
59545;BME280;45368;55.002;-1.592;2022-09-12T11:43:20;100077.39;;;18.60;56.28
59545;BME280;45368;55.002;-1.592;2022-09-12T11:45:48;100074.02;;;18.56;55.55
59545;BME280;45368;55.002;-1.592;2022-09-12T11:48:23;100075.45;;;19.34;54.63
59545;BME280;45368;55.002;-1.592;2022-09-12T11:50:57;100077.20;;;18.48;55.35
59545;BME280;45368;55.002;-1.592;2022-09-12T11:53:29;100076.29;;;19.10;55.17
59545;BME280;45368;55.002;-1.592;2022-09-12T11:56:04;100088.52;;;18.26;57.26
59545;BME280;45368;55.002;-1.592;2022-09-12T11:58:36;100093.63;;;17.91;57.92
59545;BME280;45368;55.002;-1.592;2022-09-12T12:01:11;100096.28;;;18.74;55.61
59545;BME280;45368;55.002;-1.592;2022-09-12T12:03:42;100101.56;;;18.12;58.00
59545;BME280;45368;55.002;-1.592;2022-09-12T12:06:13;100096.83;;;18.79;56.40
59545;BME280;45368;55.002;-1.592;2022-09-12T12:08:43;100098.87;;;18.42;57.32
59545;BME280;45368;55.002;-1.592;2022-09-12T12:11:12;100096.64;;;18.47;56.23
59545;BME280;45368;55.002;-1.592;2022-09-12T12:13:45;100094.30;;;18.47;56.67
59545;BME280;45368;55.002;-1.592;2022-09-12T12:16:19;100102.59;;;17.41;58.55
59545;BME280;45368;55.002;-1.592;2022-09-12T12:18:53;100104.16;;;18.43;57.34
59545;BME280;45368;55.002;-1.592;2022-09-12T12:21:34;100105.03;;;17.49;58.90
59545;BME280;45368;55.002;-1.592;2022-09-12T12:24:13;100107.51;;;17.78;58.92
59545;BME280;45368;55.002;-1.592;2022-09-12T12:26:52;100105.53;;;18.09;56.78
59545;BME280;45368;55.002;-1.592;2022-09-12T12:29:38;100100.89;;;17.67;58.55
59545;BME280;45368;55.002;-1.592;2022-09-12T12:32:24;100096.90;;;18.29;57.31
59545;BME280;45368;55.002;-1.592;2022-09-12T12:35:14;100096.98;;;17.09;59.70
59545;BME280;45368;55.002;-1.592;2022-09-12T12:38:03;100094.57;;;17.83;58.33
59545;BME280;45368;55.002;-1.592;2022-09-12T12:40:51;100105.47;;;18.02;57.84
59545;BME280;45368;55.002;-1.592;2022-09-12T12:43:34;100109.93;;;17.99;59.24
59545;BME280;45368;55.002;-1.592;2022-09-12T12:46:05;100117.51;;;18.01;60.19
59545;BME280;45368;55.002;-1.592;2022-09-12T12:48:53;100120.72;;;17.32;62.90
59545;BME280;45368;55.002;-1.592;2022-09-12T12:51:41;100116.86;;;17.73;60.90
59545;BME280;45368;55.002;-1.592;2022-09-12T12:54:57;100118.29;;;17.81;62.47
59545;BME280;45368;55.002;-1.592;2022-09-12T12:57:38;100116.80;;;17.89;61.45
59545;BME280;45368;55.002;-1.592;2022-09-12T13:00:27;100112.17;;;17.41;62.28
59545;BME280;45368;55.002;-1.592;2022-09-12T13:02:58;100120.58;;;16.88;64.12
59545;BME280;45368;55.002;-1.592;2022-09-12T13:05:28;100128.91;;;16.49;65.18
59545;BME280;45368;55.002;-1.592;2022-09-12T13:08:00;100122.95;;;16.43;64.97
59545;BME280;45368;55.002;-1.592;2022-09-12T13:10:29;100113.53;;;17.08;62.83